createdAt,value
2019-04-25T00:00:46.418Z,5.25
2019-04-25T00:03:18.009Z,5.29
2019-04-25T00:05:46.876Z,5.30
2019-04-25T00:08:15.014Z,5.49
2019-04-25T00:10:43.858Z,5.55
2019-04-25T00:13:12.366Z,5.38
2019-04-25T00:15:42.168Z,5.33
2019-04-25T00:18:11.928Z,5.35
2019-04-25T00:20:45.170Z,5.39
2019-04-25T00:23:15.794Z,5.44
2019-04-25T00:26:11.222Z,5.39
2019-04-25T00:28:40.616Z,5.41
2019-04-25T00:31:11.985Z,5.38
2019-04-25T00:33:41.967Z,5.37
2019-04-25T00:36:10.058Z,5.47
2019-04-25T00:38:42.707Z,5.61
2019-04-25T00:41:11.591Z,5.55
2019-04-25T00:43:42.179Z,5.59
2019-04-25T00:46:11.431Z,5.65
2019-04-25T00:48:39.048Z,5.55
2019-04-25T00:51:07.438Z,5.48
2019-04-25T00:53:35.353Z,5.56
2019-04-25T00:56:03.673Z,5.68
2019-04-25T00:58:47.518Z,5.72
2019-04-25T01:01:51.848Z,5.85
2019-04-25T01:04:33.625Z,5.81
2019-04-25T01:07:01.723Z,5.82
2019-04-25T01:09:30.082Z,5.86
2019-04-25T01:11:58.347Z,5.93
2019-04-25T01:14:26.533Z,5.86
2019-04-25T01:16:55.271Z,5.92
2019-04-25T01:19:23.573Z,5.94
2019-04-25T01:21:51.773Z,5.94
2019-04-25T01:24:19.983Z,5.95
2019-04-25T01:26:48.308Z,6.05
2019-04-25T01:29:16.882Z,6.02
2019-04-25T01:31:46.497Z,6.00
2019-04-25T01:34:17.058Z,6.04
2019-04-25T01:37:05.239Z,6.06
2019-04-25T01:39:40.359Z,6.08
2019-04-25T01:42:25.549Z,6.04
2019-04-25T01:44:56.546Z,6.07
2019-04-25T01:47:25.154Z,6.07
2019-04-25T01:49:54.597Z,6.14
2019-04-25T01:52:24.068Z,6.17
2019-04-25T01:54:54.728Z,6.24
2019-04-25T01:57:23.955Z,6.22
2019-04-25T01:59:54.105Z,6.18
2019-04-25T02:02:24.375Z,6.33
2019-04-25T02:04:54.778Z,6.42
2019-04-25T02:07:23.428Z,6.43
2019-04-25T02:09:53.971Z,6.38
2019-04-25T02:12:30.114Z,6.37
2019-04-25T02:14:57.991Z,6.40
2019-04-25T02:17:26.432Z,6.41
2019-04-25T02:19:56.619Z,6.44
2019-04-25T02:22:25.063Z,6.42
2019-04-25T02:24:57.121Z,6.45
2019-04-25T02:27:25.908Z,6.42
2019-04-25T02:29:55.276Z,6.41
2019-04-25T02:32:24.890Z,6.45
2019-04-25T02:34:58.226Z,6.47
2019-04-25T02:37:25.571Z,6.47
2019-04-25T02:39:57.933Z,6.50
2019-04-25T02:42:24.843Z,6.49
2019-04-25T02:45:04.213Z,6.52
2019-04-25T02:47:50.334Z,6.69
2019-04-25T02:50:34.908Z,6.83
2019-04-25T02:53:15.809Z,6.92
2019-04-25T02:55:44.763Z,7.19
2019-04-25T02:58:14.077Z,7.35
2019-04-25T03:00:56.520Z,7.49
2019-04-25T03:03:14.895Z,7.57
2019-04-25T03:05:47.172Z,7.53
2019-04-25T03:08:14.290Z,7.55
2019-04-25T03:10:44.363Z,7.52
2019-04-25T03:13:14.730Z,7.53
2019-04-25T03:15:44.199Z,7.52
2019-04-25T03:18:15.252Z,7.38
2019-04-25T03:20:59.730Z,7.29
2019-04-25T03:23:37.939Z,7.42
2019-04-25T03:26:07.491Z,7.71
2019-04-25T03:28:36.235Z,7.93
2019-04-25T03:31:10.625Z,8.07
2019-04-25T03:33:37.916Z,8.16
2019-04-25T03:36:05.474Z,8.21
2019-04-25T03:38:34.647Z,8.28
2019-04-25T03:41:04.432Z,8.35
2019-04-25T03:43:33.308Z,8.51
2019-04-25T03:46:03.116Z,8.55
2019-04-25T03:48:32.040Z,8.53
2019-04-25T03:50:59.883Z,8.58
2019-04-25T03:53:28.279Z,8.61
2019-04-25T03:55:56.524Z,8.63
2019-04-25T03:58:25.119Z,8.61
2019-04-25T04:00:54.566Z,8.64
2019-04-25T04:03:23.793Z,8.62
2019-04-25T04:05:53.987Z,8.62
2019-04-25T04:08:24.303Z,8.58
2019-04-25T04:10:52.259Z,8.50
2019-04-25T04:13:20.857Z,8.42
2019-04-25T04:15:48.794Z,8.37
2019-04-25T04:18:36.669Z,8.34
2019-04-25T04:21:24.419Z,8.33
2019-04-25T04:24:13.841Z,8.30
2019-04-25T04:26:44.286Z,8.36
2019-04-25T04:29:14.136Z,8.56
2019-04-25T04:31:43.180Z,8.59
2019-04-25T04:34:11.496Z,8.73
2019-04-25T04:36:39.353Z,8.81
2019-04-25T04:39:09.058Z,8.81
2019-04-25T04:41:38.105Z,8.79
2019-04-25T04:44:05.299Z,8.87
2019-04-25T04:46:34.024Z,8.88
2019-04-25T04:49:03.945Z,8.91
2019-04-25T04:51:33.586Z,9.00
2019-04-25T04:54:03.384Z,9.04
2019-04-25T04:56:34.072Z,9.16
2019-04-25T04:59:03.623Z,9.24
2019-04-25T05:01:35.085Z,9.36
2019-04-25T05:04:17.110Z,9.45
2019-04-25T05:07:11.084Z,9.52
2019-04-25T05:09:39.450Z,9.53
2019-04-25T05:12:07.938Z,9.62
2019-04-25T05:14:36.529Z,9.63
2019-04-25T05:17:05.030Z,9.66
2019-04-25T05:19:33.682Z,9.67
2019-04-25T05:22:03.558Z,9.73
2019-04-25T05:24:33.785Z,9.76
2019-04-25T05:27:03.800Z,9.82
2019-04-25T05:29:34.033Z,9.88
2019-04-25T05:32:04.250Z,9.89
2019-04-25T05:34:34.449Z,9.93
2019-04-25T05:37:03.842Z,10.01
2019-04-25T05:39:33.434Z,10.02
2019-04-25T05:42:10.754Z,10.05
2019-04-25T05:44:39.023Z,10.15
2019-04-25T05:47:07.539Z,10.20
2019-04-25T05:49:35.765Z,10.21
2019-04-25T05:52:04.058Z,10.28
2019-04-25T05:54:33.999Z,10.38
2019-04-25T05:57:03.726Z,10.46
2019-04-25T05:59:33.535Z,10.54
2019-04-25T06:02:01.997Z,10.61
2019-04-25T06:04:30.690Z,10.66
2019-04-25T06:06:59.369Z,10.72
2019-04-25T06:09:54.507Z,10.84
2019-04-25T06:12:46.534Z,10.93
2019-04-25T06:15:14.268Z,10.99
2019-04-25T06:18:16.813Z,11.08
2019-04-25T06:20:45.171Z,11.22
2019-04-25T06:23:34.084Z,11.29
2019-04-25T06:26:17.090Z,11.35
2019-04-25T06:28:34.558Z,11.48
2019-04-25T06:31:09.899Z,11.51
2019-04-25T06:33:34.796Z,11.70
2019-04-25T06:36:04.174Z,11.73
2019-04-25T06:38:33.471Z,11.85
2019-04-25T06:41:03.466Z,11.93
2019-04-25T06:43:33.728Z,11.99
2019-04-25T06:46:36.610Z,12.04
2019-04-25T06:49:26.848Z,12.15
2019-04-25T06:51:55.599Z,12.21
2019-04-25T06:54:25.448Z,12.27
2019-04-25T06:56:53.975Z,12.39
2019-04-25T06:59:24.938Z,12.55
2019-04-25T07:01:54.088Z,12.70
2019-04-25T07:04:25.103Z,12.94
2019-04-25T07:06:53.516Z,13.01
2019-04-25T07:09:24.389Z,13.17
2019-04-25T07:11:53.773Z,13.42
2019-04-25T07:14:21.431Z,13.80
2019-04-25T07:16:49.999Z,14.18
2019-04-25T07:19:18.384Z,14.48
2019-04-25T07:21:46.815Z,14.81
2019-04-25T07:24:14.544Z,15.10
2019-04-25T07:27:05.794Z,15.39
2019-04-25T07:30:03.941Z,15.60
2019-04-25T07:32:43.882Z,16.19
2019-04-25T07:35:13.515Z,16.34
2019-04-25T07:37:41.775Z,16.54
2019-04-25T07:40:10.737Z,16.59
2019-04-25T07:42:38.675Z,16.47
2019-04-25T07:45:07.729Z,16.37
2019-04-25T07:47:36.404Z,16.23
2019-04-25T07:50:05.293Z,16.04
2019-04-25T07:52:34.857Z,16.04
2019-04-25T07:55:03.825Z,15.91
2019-04-25T07:57:33.527Z,15.89
2019-04-25T08:00:03.284Z,15.85
2019-04-25T08:02:34.117Z,15.88
2019-04-25T08:05:09.955Z,16.00
2019-04-25T08:07:38.796Z,16.24
2019-04-25T08:10:08.004Z,16.45
2019-04-25T08:12:35.911Z,16.52
2019-04-25T08:15:13.916Z,16.56
2019-04-25T08:17:59.810Z,16.56
2019-04-25T08:20:29.120Z,16.65
2019-04-25T08:22:59.633Z,16.73
2019-04-25T08:25:28.501Z,16.77
2019-04-25T08:27:57.262Z,16.74
2019-04-25T08:30:25.880Z,16.82
2019-04-25T08:32:54.179Z,17.00
2019-04-25T08:35:24.122Z,17.14
2019-04-25T08:37:53.743Z,17.16
2019-04-25T08:40:24.366Z,17.19
2019-04-25T08:42:53.806Z,17.48
2019-04-25T08:45:22.286Z,17.69
2019-04-25T08:47:50.824Z,17.94
2019-04-25T08:50:33.251Z,18.31
2019-04-25T08:53:00.370Z,18.79
2019-04-25T08:55:48.311Z,18.91
2019-04-25T08:58:36.559Z,19.18
2019-04-25T09:01:11.721Z,19.18
2019-04-25T09:03:45.683Z,19.25
2019-04-25T09:06:13.597Z,19.40
2019-04-25T09:08:45.206Z,19.37
2019-04-25T09:11:13.481Z,19.28
2019-04-25T09:13:41.410Z,19.39
2019-04-25T09:16:10.180Z,19.33
2019-04-25T09:18:38.310Z,19.20
2019-04-25T09:21:06.129Z,19.16
2019-04-25T09:23:35.606Z,19.13
2019-04-25T09:26:03.969Z,19.10
2019-04-25T09:28:37.588Z,19.10
2019-04-25T09:31:04.001Z,19.04
2019-04-25T09:33:35.162Z,19.04
2019-04-25T09:36:02.904Z,19.28
2019-04-25T09:38:31.411Z,19.66
2019-04-25T09:40:59.644Z,19.66
2019-04-25T09:43:27.940Z,19.49
2019-04-25T09:46:15.676Z,19.45
2019-04-25T09:49:09.237Z,19.53
2019-04-25T09:51:40.933Z,19.85
2019-04-25T09:54:41.989Z,20.07
2019-04-25T09:57:33.621Z,20.20
2019-04-25T10:00:03.669Z,20.29
2019-04-25T10:02:31.992Z,20.40
2019-04-25T10:05:00.189Z,20.38
2019-04-25T10:07:28.628Z,20.31
2019-04-25T10:09:58.751Z,20.55
2019-04-25T10:12:27.370Z,20.78
2019-04-25T10:15:20.448Z,21.13
2019-04-25T10:17:48.416Z,21.33
2019-04-25T10:20:17.713Z,21.49
2019-04-25T10:22:46.624Z,21.96
2019-04-25T10:25:15.850Z,21.92
2019-04-25T10:27:48.854Z,21.82
2019-04-25T10:30:21.589Z,21.73
2019-04-25T10:32:48.066Z,22.05
2019-04-25T10:35:16.021Z,22.15
2019-04-25T10:37:45.564Z,22.38
2019-04-25T10:40:15.574Z,22.69
2019-04-25T10:42:46.598Z,22.87
2019-04-25T10:45:22.872Z,22.81
2019-04-25T10:47:45.249Z,22.79
2019-04-25T10:50:13.739Z,23.07
2019-04-25T10:52:44.502Z,23.16
2019-04-25T10:55:14.223Z,23.31
2019-04-25T10:57:43.639Z,23.35
2019-04-25T11:00:21.341Z,23.84
2019-04-25T11:02:49.915Z,24.14
2019-04-25T11:05:18.438Z,24.53
2019-04-25T11:07:46.981Z,24.77
2019-04-25T11:10:15.190Z,24.71
2019-04-25T11:12:45.439Z,24.39
2019-04-25T11:15:16.683Z,23.89
2019-04-25T11:17:45.896Z,23.61
2019-04-25T11:20:25.243Z,23.52
2019-04-25T11:22:53.543Z,23.40
2019-04-25T11:25:23.930Z,23.67
2019-04-25T11:27:53.815Z,23.94
2019-04-25T11:30:23.252Z,24.12
2019-04-25T11:32:53.202Z,24.06
2019-04-25T11:35:21.514Z,23.75
2019-04-25T11:37:51.292Z,23.68
2019-04-25T11:40:46.588Z,23.43
2019-04-25T11:43:14.156Z,23.20
2019-04-25T11:45:42.110Z,22.98
2019-04-25T11:48:10.594Z,22.94
2019-04-25T11:50:38.948Z,22.60
2019-04-25T11:53:07.480Z,22.52
2019-04-25T11:55:37.187Z,22.12
2019-04-25T11:58:04.817Z,22.09
2019-04-25T12:00:34.084Z,22.26
2019-04-25T12:03:03.677Z,22.28
2019-04-25T12:05:32.400Z,22.48
2019-04-25T12:08:00.142Z,22.68
2019-04-25T12:10:30.474Z,22.77
2019-04-25T12:12:58.650Z,22.51
2019-04-25T12:15:26.781Z,22.52
2019-04-25T12:17:55.904Z,22.39
2019-04-25T12:20:24.554Z,22.80
2019-04-25T12:23:04.191Z,23.12
2019-04-25T12:25:23.722Z,23.05
2019-04-25T12:27:51.599Z,23.39
2019-04-25T12:30:20.302Z,23.82
2019-04-25T12:32:49.936Z,24.16
2019-04-25T12:35:18.579Z,24.94
2019-04-25T12:37:48.095Z,25.12
2019-04-25T12:40:16.274Z,25.16
2019-04-25T12:42:46.264Z,25.56
2019-04-25T12:45:43.389Z,25.68
2019-04-25T12:48:14.410Z,26.53
2019-04-25T12:50:43.957Z,26.09
2019-04-25T12:53:13.885Z,26.09
2019-04-25T12:55:44.172Z,25.88
2019-04-25T12:58:13.547Z,25.49
2019-04-25T13:00:48.064Z,25.54
2019-04-25T13:03:11.911Z,25.54
2019-04-25T13:05:40.539Z,25.59
2019-04-25T13:08:08.822Z,25.64
2019-04-25T13:10:37.351Z,25.53
2019-04-25T13:13:05.596Z,25.52
2019-04-25T13:15:34.590Z,25.26
2019-04-25T13:18:03.528Z,25.44
2019-04-25T13:20:32.098Z,26.08
2019-04-25T13:23:00.509Z,26.72
2019-04-25T13:25:28.509Z,27.01
2019-04-25T13:28:24.995Z,27.71
2019-04-25T13:31:18.652Z,27.33
2019-04-25T13:34:04.612Z,26.97
2019-04-25T13:36:34.700Z,26.79
2019-04-25T13:39:05.523Z,27.12
2019-04-25T13:41:34.221Z,27.56
2019-04-25T13:44:05.122Z,27.32
2019-04-25T13:46:34.317Z,26.85
2019-04-25T13:49:04.411Z,27.16
2019-04-25T13:51:33.282Z,27.36
2019-04-25T13:54:02.174Z,27.77
2019-04-25T13:56:33.387Z,28.50
2019-04-25T13:59:01.750Z,29.16
2019-04-25T14:01:30.369Z,30.01
2019-04-25T14:03:58.540Z,28.99
2019-04-25T14:06:28.101Z,28.95
2019-04-25T14:08:56.935Z,29.09
2019-04-25T14:11:25.964Z,28.91
2019-04-25T14:13:55.456Z,29.01
2019-04-25T14:16:45.631Z,28.77
2019-04-25T14:19:44.224Z,28.22
2019-04-25T14:22:12.344Z,28.55
2019-04-25T14:24:40.891Z,30.14
2019-04-25T14:27:09.365Z,30.95
2019-04-25T14:29:37.954Z,31.80
2019-04-25T14:32:07.666Z,31.97
2019-04-25T14:34:36.051Z,30.80
2019-04-25T14:37:03.708Z,30.97
2019-04-25T14:39:31.649Z,30.99
2019-04-25T14:41:59.889Z,30.69
2019-04-25T14:44:28.632Z,30.51
2019-04-25T14:46:56.213Z,30.44
2019-04-25T14:49:24.830Z,28.97
2019-04-25T14:51:53.659Z,28.18
2019-04-25T14:54:35.994Z,28.34
2019-04-25T14:57:19.781Z,29.90
2019-04-25T14:59:49.409Z,30.34
2019-04-25T15:02:22.484Z,30.58
2019-04-25T15:04:50.845Z,29.87
2019-04-25T15:07:22.192Z,30.78
2019-04-25T15:09:52.029Z,30.47
2019-04-25T15:12:23.581Z,31.02
2019-04-25T15:14:51.558Z,30.78
2019-04-25T15:17:19.423Z,29.07
2019-04-25T15:19:47.590Z,27.87
2019-04-25T15:22:15.991Z,27.91
2019-04-25T15:24:43.827Z,29.39
2019-04-25T15:27:12.334Z,30.20
2019-04-25T15:29:40.840Z,30.81
2019-04-25T15:32:14.034Z,30.87
2019-04-25T15:34:48.952Z,31.26
2019-04-25T15:37:24.740Z,32.57
2019-04-25T15:40:00.777Z,31.64
2019-04-25T15:42:46.667Z,29.95
2019-04-25T15:45:46.230Z,29.07
2019-04-25T15:48:15.144Z,29.97
2019-04-25T15:50:42.689Z,29.16
2019-04-25T15:53:10.981Z,27.68
2019-04-25T15:55:40.602Z,26.34
2019-04-25T15:58:09.387Z,25.04
2019-04-25T16:00:38.616Z,23.72
2019-04-25T16:03:07.279Z,22.86
2019-04-25T16:05:38.328Z,22.62
2019-04-25T16:08:06.891Z,22.20
2019-04-25T16:10:35.187Z,21.94
2019-04-25T16:13:03.880Z,21.72
2019-04-25T16:15:33.201Z,21.52
2019-04-25T16:18:01.997Z,21.39
2019-04-25T16:20:30.270Z,21.26
2019-04-25T16:22:58.102Z,21.12
2019-04-25T16:25:26.434Z,21.07
2019-04-25T16:27:55.027Z,20.91
2019-04-25T16:30:26.212Z,20.73
2019-04-25T16:32:54.504Z,20.72
2019-04-25T16:35:23.228Z,20.60
2019-04-25T16:37:51.210Z,20.60
2019-04-25T16:40:19.605Z,20.53
2019-04-25T16:42:48.234Z,20.43
2019-04-25T16:45:16.884Z,20.52
2019-04-25T16:47:45.510Z,20.40
2019-04-25T16:50:14.221Z,20.38
2019-04-25T16:52:42.699Z,20.35
2019-04-25T16:55:12.372Z,20.26
2019-04-25T16:57:40.317Z,20.26
2019-04-25T17:00:15.681Z,20.19
2019-04-25T17:02:43.942Z,20.14
2019-04-25T17:05:12.692Z,20.17
2019-04-25T17:07:41.373Z,20.08
2019-04-25T17:10:10.682Z,19.99
2019-04-25T17:12:38.695Z,19.96
2019-04-25T17:15:17.862Z,19.94
2019-04-25T17:18:03.944Z,19.81
2019-04-25T17:20:35.514Z,19.81
2019-04-25T17:23:04.277Z,19.91
2019-04-25T17:25:33.455Z,19.87
2019-04-25T17:28:01.946Z,19.91
2019-04-25T17:30:32.640Z,19.91
2019-04-25T17:33:17.995Z,20.00
2019-04-25T17:36:06.810Z,19.93
2019-04-25T17:38:41.072Z,19.81
2019-04-25T17:41:09.046Z,19.65
2019-04-25T17:43:36.989Z,19.53
2019-04-25T17:46:10.884Z,19.38
2019-04-25T17:48:38.570Z,19.29
2019-04-25T17:51:06.975Z,19.18
2019-04-25T17:53:36.459Z,19.08
2019-04-25T17:56:04.470Z,19.01
2019-04-25T17:58:33.337Z,18.88
2019-04-25T18:01:02.712Z,18.82
2019-04-25T18:03:31.596Z,18.80
2019-04-25T18:06:00.058Z,18.69
2019-04-25T18:08:28.489Z,18.59
2019-04-25T18:10:56.703Z,18.41
2019-04-25T18:13:26.319Z,18.33
2019-04-25T18:16:08.221Z,18.25
2019-04-25T18:18:54.621Z,18.14
2019-04-25T18:21:22.612Z,17.89
2019-04-25T18:24:09.501Z,17.65
2019-04-25T18:26:51.056Z,17.46
2019-04-25T18:29:19.645Z,17.27
2019-04-25T18:31:48.442Z,17.14
2019-04-25T18:34:28.561Z,17.01
2019-04-25T18:37:21.349Z,16.90
2019-04-25T18:39:58.299Z,16.80
2019-04-25T18:42:54.770Z,16.63
2019-04-25T18:45:27.225Z,16.57
2019-04-25T18:47:56.332Z,16.51
2019-04-25T18:50:27.398Z,16.39
2019-04-25T18:53:14.813Z,16.35
2019-04-25T18:55:53.135Z,16.28
2019-04-25T18:58:41.879Z,16.39
2019-04-25T19:01:27.952Z,16.36
2019-04-25T19:04:07.010Z,16.25
2019-04-25T19:06:35.667Z,16.12
2019-04-25T19:09:04.931Z,15.95
2019-04-25T19:11:33.696Z,15.77
2019-04-25T19:14:01.961Z,15.59
2019-04-25T19:16:30.470Z,15.39
2019-04-25T19:18:59.121Z,15.17
2019-04-25T19:21:29.161Z,14.99
2019-04-25T19:23:57.988Z,14.84
2019-04-25T19:26:28.425Z,14.68
2019-04-25T19:28:58.783Z,14.56
2019-04-25T19:31:28.805Z,14.45
2019-04-25T19:33:57.499Z,14.40
2019-04-25T19:36:26.386Z,14.32
2019-04-25T19:38:55.506Z,14.23
2019-04-25T19:41:41.457Z,14.12
2019-04-25T19:44:13.348Z,14.03
2019-04-25T19:46:44.895Z,13.93
2019-04-25T19:49:14.811Z,13.82
2019-04-25T19:51:43.230Z,13.64
2019-04-25T19:54:13.832Z,13.51
2019-04-25T19:56:43.839Z,13.40
2019-04-25T19:59:12.401Z,13.31
2019-04-25T20:01:42.636Z,13.26
2019-04-25T20:04:28.369Z,13.20
2019-04-25T20:07:14.369Z,13.09
2019-04-25T20:10:02.807Z,13.54
2019-04-25T20:12:50.495Z,13.82
2019-04-25T20:15:18.507Z,13.77
2019-04-25T20:17:47.703Z,13.67
2019-04-25T20:20:16.826Z,13.72
2019-04-25T20:22:46.335Z,13.52
2019-04-25T20:25:15.406Z,13.43
2019-04-25T20:27:45.339Z,13.29
2019-04-25T20:30:15.568Z,13.09
2019-04-25T20:32:44.778Z,12.81
2019-04-25T20:35:15.371Z,12.61
2019-04-25T20:37:44.933Z,12.45
2019-04-25T20:40:13.423Z,12.28
2019-04-25T20:42:41.962Z,12.16
2019-04-25T20:45:11.405Z,12.05
2019-04-25T20:47:40.411Z,11.97
2019-04-25T20:50:10.653Z,11.78
2019-04-25T20:52:38.675Z,11.64
2019-04-25T20:55:06.663Z,11.57
2019-04-25T20:57:35.273Z,11.51
2019-04-25T21:00:03.495Z,11.44
2019-04-25T21:02:31.831Z,11.37
2019-04-25T21:04:59.825Z,11.20
2019-04-25T21:07:29.327Z,11.13
2019-04-25T21:09:57.746Z,11.03
2019-04-25T21:12:26.175Z,10.96
2019-04-25T21:15:18.939Z,10.87
2019-04-25T21:18:15.447Z,10.79
2019-04-25T21:20:43.620Z,10.69
2019-04-25T21:23:13.276Z,10.64
2019-04-25T21:25:43.908Z,10.55
2019-04-25T21:28:14.146Z,10.35
2019-04-25T21:30:43.945Z,10.27
2019-04-25T21:33:14.407Z,10.23
2019-04-25T21:35:42.958Z,10.16
2019-04-25T21:38:11.597Z,10.09
2019-04-25T21:41:03.230Z,10.03
2019-04-25T21:43:35.332Z,9.97
2019-04-25T21:46:05.588Z,9.82
2019-04-25T21:48:35.486Z,9.78
2019-04-25T21:51:23.596Z,9.73
2019-04-25T21:53:54.471Z,9.68
2019-04-25T21:56:25.066Z,9.68
2019-04-25T21:58:54.425Z,9.56
2019-04-25T22:01:24.745Z,9.52
2019-04-25T22:03:54.352Z,9.39
2019-04-25T22:06:24.987Z,9.34
2019-04-25T22:08:52.927Z,9.30
2019-04-25T22:11:21.321Z,9.35
2019-04-25T22:13:50.111Z,9.25
2019-04-25T22:16:18.632Z,9.21
2019-04-25T22:18:47.491Z,9.19
2019-04-25T22:21:16.080Z,9.27
2019-04-25T22:23:44.252Z,9.27
2019-04-25T22:26:11.806Z,9.13
2019-04-25T22:28:40.745Z,9.04
2019-04-25T22:31:18.263Z,9.00
2019-04-25T22:34:06.257Z,8.96
2019-04-25T22:36:34.735Z,8.93
2019-04-25T22:39:09.576Z,8.88
2019-04-25T22:41:40.639Z,8.92
2019-04-25T22:44:11.250Z,8.99
2019-04-25T22:46:40.968Z,8.79
2019-04-25T22:49:09.754Z,8.79
2019-04-25T22:51:38.230Z,8.80
2019-04-25T22:54:07.432Z,8.72
2019-04-25T22:56:36.045Z,8.74
2019-04-25T22:59:04.821Z,8.80
2019-04-25T23:01:51.327Z,8.77
2019-04-25T23:04:28.092Z,8.64
2019-04-25T23:06:56.725Z,8.68
2019-04-25T23:09:24.876Z,8.62
2019-04-25T23:11:53.332Z,8.67
2019-04-25T23:14:21.821Z,8.59
2019-04-25T23:16:51.119Z,8.53
2019-04-25T23:19:19.417Z,8.41
2019-04-25T23:21:48.126Z,8.38
2019-04-25T23:24:17.952Z,8.44
2019-04-25T23:27:12.208Z,8.49
2019-04-25T23:29:39.782Z,8.34
2019-04-25T23:32:08.977Z,8.28
2019-04-25T23:34:36.893Z,8.27
2019-04-25T23:37:04.917Z,8.19
2019-04-25T23:39:34.749Z,8.05
2019-04-25T23:42:02.614Z,8.14
2019-04-25T23:44:31.198Z,8.20
2019-04-25T23:46:59.011Z,8.06
2019-04-25T23:49:27.287Z,8.08
2019-04-25T23:51:56.971Z,8.14
2019-04-25T23:54:25.731Z,8.05
2019-04-25T23:56:53.716Z,8.12
2019-04-25T23:59:21.691Z,8.05
